sensor_id;sensor_type;location;lat;lon;timestamp;P1;durP1;ratioP1;P2;durP2;ratioP2
74777;SDS011;63298;53.164;8.610;2022-11-30T00:00:34;26.92;;;13.18;;
74777;SDS011;63298;53.164;8.610;2022-11-30T00:03:00;39.65;;;14.18;;
74777;SDS011;63298;53.164;8.610;2022-11-30T00:05:27;28.38;;;12.25;;
74777;SDS011;63298;53.164;8.610;2022-11-30T00:07:52;32.85;;;15.27;;
74777;SDS011;63298;53.164;8.610;2022-11-30T00:10:17;32.28;;;15.10;;
74777;SDS011;63298;53.164;8.610;2022-11-30T00:12:43;29.10;;;13.65;;
74777;SDS011;63298;53.164;8.610;2022-11-30T00:15:09;32.00;;;13.90;;
74777;SDS011;63298;53.164;8.610;2022-11-30T00:17:35;38.00;;;15.23;;
74777;SDS011;63298;53.164;8.610;2022-11-30T00:20:00;32.85;;;14.40;;
74777;SDS011;63298;53.164;8.610;2022-11-30T00:22:26;32.90;;;16.00;;
74777;SDS011;63298;53.164;8.610;2022-11-30T00:24:51;33.67;;;15.43;;
74777;SDS011;63298;53.164;8.610;2022-11-30T00:27:17;35.17;;;14.13;;
74777;SDS011;63298;53.164;8.610;2022-11-30T00:29:42;32.35;;;14.35;;
74777;SDS011;63298;53.164;8.610;2022-11-30T00:32:07;34.67;;;14.77;;
74777;SDS011;63298;53.164;8.610;2022-11-30T00:34:32;39.43;;;16.03;;
74777;SDS011;63298;53.164;8.610;2022-11-30T00:36:58;34.28;;;15.68;;
74777;SDS011;63298;53.164;8.610;2022-11-30T00:39:23;38.27;;;15.37;;
74777;SDS011;63298;53.164;8.610;2022-11-30T00:41:48;37.67;;;16.77;;
74777;SDS011;63298;53.164;8.610;2022-11-30T00:44:14;34.58;;;15.45;;
74777;SDS011;63298;53.164;8.610;2022-11-30T00:46:39;32.95;;;14.63;;
74777;SDS011;63298;53.164;8.610;2022-11-30T00:49:04;32.80;;;15.05;;
74777;SDS011;63298;53.164;8.610;2022-11-30T00:51:29;31.97;;;14.63;;
74777;SDS011;63298;53.164;8.610;2022-11-30T00:53:55;36.17;;;15.93;;
74777;SDS011;63298;53.164;8.610;2022-11-30T00:56:20;36.17;;;16.02;;
74777;SDS011;63298;53.164;8.610;2022-11-30T00:58:45;34.30;;;14.65;;
74777;SDS011;63298;53.164;8.610;2022-11-30T01:01:11;41.33;;;15.43;;
74777;SDS011;63298;53.164;8.610;2022-11-30T01:03:36;34.42;;;14.95;;
74777;SDS011;63298;53.164;8.610;2022-11-30T01:06:03;33.60;;;15.85;;
74777;SDS011;63298;53.164;8.610;2022-11-30T01:08:32;37.45;;;15.38;;
74777;SDS011;63298;53.164;8.610;2022-11-30T01:11:03;37.20;;;14.90;;
74777;SDS011;63298;53.164;8.610;2022-11-30T01:13:30;40.40;;;17.25;;
74777;SDS011;63298;53.164;8.610;2022-11-30T01:15:55;36.80;;;15.15;;
74777;SDS011;63298;53.164;8.610;2022-11-30T01:18:21;35.80;;;14.73;;
74777;SDS011;63298;53.164;8.610;2022-11-30T01:20:46;37.10;;;16.23;;
74777;SDS011;63298;53.164;8.610;2022-11-30T01:23:11;39.55;;;15.77;;
74777;SDS011;63298;53.164;8.610;2022-11-30T01:25:37;39.67;;;15.73;;
74777;SDS011;63298;53.164;8.610;2022-11-30T01:28:03;34.67;;;15.50;;
74777;SDS011;63298;53.164;8.610;2022-11-30T01:30:28;41.47;;;16.90;;
74777;SDS011;63298;53.164;8.610;2022-11-30T01:32:53;36.00;;;15.45;;
74777;SDS011;63298;53.164;8.610;2022-11-30T01:35:19;37.58;;;15.82;;
74777;SDS011;63298;53.164;8.610;2022-11-30T01:37:44;37.58;;;15.65;;
74777;SDS011;63298;53.164;8.610;2022-11-30T01:40:09;36.15;;;14.82;;
74777;SDS011;63298;53.164;8.610;2022-11-30T01:42:35;37.50;;;15.40;;
74777;SDS011;63298;53.164;8.610;2022-11-30T01:45:01;39.55;;;15.15;;
74777;SDS011;63298;53.164;8.610;2022-11-30T01:49:58;35.17;;;14.38;;
74777;SDS011;63298;53.164;8.610;2022-11-30T01:52:28;37.78;;;15.63;;
74777;SDS011;63298;53.164;8.610;2022-11-30T02:00:23;43.47;;;16.02;;
74777;SDS011;63298;53.164;8.610;2022-11-30T02:02:51;42.78;;;16.65;;
74777;SDS011;63298;53.164;8.610;2022-11-30T02:05:18;45.00;;;16.80;;
74777;SDS011;63298;53.164;8.610;2022-11-30T02:07:45;38.60;;;15.90;;
74777;SDS011;63298;53.164;8.610;2022-11-30T02:10:14;39.03;;;15.48;;
74777;SDS011;63298;53.164;8.610;2022-11-30T02:29:35;38.38;;;16.05;;
74777;SDS011;63298;53.164;8.610;2022-11-30T02:32:11;49.22;;;18.00;;
74777;SDS011;63298;53.164;8.610;2022-11-30T02:34:41;45.63;;;17.33;;
74777;SDS011;63298;53.164;8.610;2022-11-30T02:37:08;45.60;;;17.73;;
74777;SDS011;63298;53.164;8.610;2022-11-30T02:39:36;50.30;;;17.77;;
74777;SDS011;63298;53.164;8.610;2022-11-30T02:42:01;52.83;;;19.50;;
74777;SDS011;63298;53.164;8.610;2022-11-30T02:44:27;56.22;;;18.95;;
74777;SDS011;63298;53.164;8.610;2022-11-30T02:52:41;58.60;;;20.55;;
74777;SDS011;63298;53.164;8.610;2022-11-30T02:55:09;54.75;;;19.00;;
74777;SDS011;63298;53.164;8.610;2022-11-30T02:57:39;57.53;;;19.38;;
74777;SDS011;63298;53.164;8.610;2022-11-30T03:00:06;54.10;;;19.97;;
74777;SDS011;63298;53.164;8.610;2022-11-30T03:02:33;52.08;;;18.75;;
74777;SDS011;63298;53.164;8.610;2022-11-30T03:04:58;53.60;;;18.52;;
74777;SDS011;63298;53.164;8.610;2022-11-30T03:07:24;56.28;;;18.92;;
74777;SDS011;63298;53.164;8.610;2022-11-30T03:09:49;45.92;;;18.30;;
74777;SDS011;63298;53.164;8.610;2022-11-30T03:12:14;48.10;;;17.88;;
74777;SDS011;63298;53.164;8.610;2022-11-30T03:14:40;58.55;;;20.73;;
74777;SDS011;63298;53.164;8.610;2022-11-30T03:17:05;51.13;;;18.17;;
74777;SDS011;63298;53.164;8.610;2022-11-30T03:19:31;52.85;;;18.23;;
74777;SDS011;63298;53.164;8.610;2022-11-30T03:21:57;47.45;;;18.83;;
74777;SDS011;63298;53.164;8.610;2022-11-30T03:24:23;53.78;;;18.55;;
74777;SDS011;63298;53.164;8.610;2022-11-30T03:26:48;50.92;;;18.35;;
74777;SDS011;63298;53.164;8.610;2022-11-30T03:29:14;54.00;;;19.00;;
74777;SDS011;63298;53.164;8.610;2022-11-30T03:31:39;52.85;;;17.95;;
74777;SDS011;63298;53.164;8.610;2022-11-30T03:34:04;46.60;;;18.23;;
74777;SDS011;63298;53.164;8.610;2022-11-30T03:36:30;49.10;;;18.05;;
74777;SDS011;63298;53.164;8.610;2022-11-30T03:38:55;46.95;;;17.52;;
74777;SDS011;63298;53.164;8.610;2022-11-30T03:41:21;58.45;;;16.75;;
74777;SDS011;63298;53.164;8.610;2022-11-30T03:43:46;49.22;;;17.23;;
74777;SDS011;63298;53.164;8.610;2022-11-30T03:46:12;54.22;;;19.00;;
74777;SDS011;63298;53.164;8.610;2022-11-30T03:48:38;43.00;;;16.90;;
74777;SDS011;63298;53.164;8.610;2022-11-30T03:51:03;57.60;;;17.70;;
74777;SDS011;63298;53.164;8.610;2022-11-30T03:53:29;54.58;;;18.00;;
74777;SDS011;63298;53.164;8.610;2022-11-30T03:55:56;48.42;;;16.33;;
74777;SDS011;63298;53.164;8.610;2022-11-30T03:58:23;49.20;;;17.23;;
74777;SDS011;63298;53.164;8.610;2022-11-30T04:00:50;52.30;;;17.85;;
74777;SDS011;63298;53.164;8.610;2022-11-30T04:03:23;44.00;;;17.25;;
74777;SDS011;63298;53.164;8.610;2022-11-30T04:05:48;55.97;;;18.85;;
74777;SDS011;63298;53.164;8.610;2022-11-30T04:08:14;49.00;;;17.13;;
74777;SDS011;63298;53.164;8.610;2022-11-30T04:10:39;45.67;;;16.55;;
74777;SDS011;63298;53.164;8.610;2022-11-30T04:13:04;44.70;;;17.00;;
74777;SDS011;63298;53.164;8.610;2022-11-30T04:15:30;52.20;;;17.05;;
74777;SDS011;63298;53.164;8.610;2022-11-30T04:17:55;48.40;;;17.30;;
74777;SDS011;63298;53.164;8.610;2022-11-30T04:20:21;52.58;;;18.23;;
74777;SDS011;63298;53.164;8.610;2022-11-30T04:22:46;43.38;;;15.57;;
74777;SDS011;63298;53.164;8.610;2022-11-30T04:25:12;45.17;;;16.10;;
74777;SDS011;63298;53.164;8.610;2022-11-30T04:27:37;38.13;;;15.15;;
74777;SDS011;63298;53.164;8.610;2022-11-30T04:30:02;41.07;;;16.47;;
74777;SDS011;63298;53.164;8.610;2022-11-30T04:32:28;44.53;;;16.90;;
74777;SDS011;63298;53.164;8.610;2022-11-30T04:34:53;43.75;;;16.35;;
74777;SDS011;63298;53.164;8.610;2022-11-30T04:37:19;48.50;;;17.40;;
74777;SDS011;63298;53.164;8.610;2022-11-30T04:39:44;49.47;;;17.05;;
74777;SDS011;63298;53.164;8.610;2022-11-30T04:42:09;39.53;;;16.27;;
74777;SDS011;63298;53.164;8.610;2022-11-30T04:44:35;42.20;;;16.42;;
74777;SDS011;63298;53.164;8.610;2022-11-30T04:47:00;40.80;;;17.08;;
74777;SDS011;63298;53.164;8.610;2022-11-30T04:49:25;44.50;;;14.97;;
74777;SDS011;63298;53.164;8.610;2022-11-30T04:51:50;44.57;;;16.27;;
74777;SDS011;63298;53.164;8.610;2022-11-30T04:54:16;46.37;;;16.97;;
74777;SDS011;63298;53.164;8.610;2022-11-30T04:56:41;49.08;;;16.48;;
74777;SDS011;63298;53.164;8.610;2022-11-30T04:59:06;48.30;;;17.77;;
74777;SDS011;63298;53.164;8.610;2022-11-30T05:01:32;46.88;;;16.98;;
74777;SDS011;63298;53.164;8.610;2022-11-30T05:03:57;48.63;;;16.92;;
74777;SDS011;63298;53.164;8.610;2022-11-30T05:06:23;50.83;;;17.33;;
74777;SDS011;63298;53.164;8.610;2022-11-30T05:08:48;49.63;;;17.58;;
74777;SDS011;63298;53.164;8.610;2022-11-30T05:11:13;54.80;;;17.77;;
74777;SDS011;63298;53.164;8.610;2022-11-30T05:13:38;50.88;;;18.88;;
74777;SDS011;63298;53.164;8.610;2022-11-30T05:16:04;55.97;;;20.00;;
74777;SDS011;63298;53.164;8.610;2022-11-30T05:18:29;55.58;;;18.58;;
74777;SDS011;63298;53.164;8.610;2022-11-30T05:20:55;58.28;;;18.67;;
74777;SDS011;63298;53.164;8.610;2022-11-30T05:23:20;64.78;;;19.02;;
74777;SDS011;63298;53.164;8.610;2022-11-30T05:25:46;66.30;;;20.00;;
74777;SDS011;63298;53.164;8.610;2022-11-30T05:28:12;61.83;;;20.83;;
74777;SDS011;63298;53.164;8.610;2022-11-30T05:30:38;60.05;;;19.13;;
74777;SDS011;63298;53.164;8.610;2022-11-30T05:33:05;64.88;;;19.60;;
74777;SDS011;63298;53.164;8.610;2022-11-30T05:35:31;61.75;;;19.55;;
74777;SDS011;63298;53.164;8.610;2022-11-30T05:37:56;58.97;;;19.38;;
74777;SDS011;63298;53.164;8.610;2022-11-30T05:40:21;57.65;;;18.38;;
74777;SDS011;63298;53.164;8.610;2022-11-30T05:42:47;56.45;;;18.95;;
74777;SDS011;63298;53.164;8.610;2022-11-30T05:45:18;57.10;;;18.25;;
74777;SDS011;63298;53.164;8.610;2022-11-30T05:47:43;50.58;;;17.17;;
74777;SDS011;63298;53.164;8.610;2022-11-30T05:50:08;56.38;;;17.75;;
74777;SDS011;63298;53.164;8.610;2022-11-30T05:52:34;58.05;;;18.63;;
74777;SDS011;63298;53.164;8.610;2022-11-30T05:54:59;58.90;;;18.60;;
74777;SDS011;63298;53.164;8.610;2022-11-30T05:57:24;58.05;;;18.55;;
74777;SDS011;63298;53.164;8.610;2022-11-30T05:59:50;45.95;;;16.92;;
74777;SDS011;63298;53.164;8.610;2022-11-30T06:02:15;41.33;;;14.75;;
74777;SDS011;63298;53.164;8.610;2022-11-30T06:04:40;51.08;;;17.80;;
74777;SDS011;63298;53.164;8.610;2022-11-30T06:07:06;53.63;;;16.98;;
74777;SDS011;63298;53.164;8.610;2022-11-30T06:09:31;51.88;;;16.55;;
74777;SDS011;63298;53.164;8.610;2022-11-30T06:11:56;42.90;;;16.23;;
74777;SDS011;63298;53.164;8.610;2022-11-30T06:14:22;51.55;;;17.67;;
74777;SDS011;63298;53.164;8.610;2022-11-30T06:16:47;46.00;;;14.38;;
74777;SDS011;63298;53.164;8.610;2022-11-30T06:19:12;40.63;;;15.63;;
74777;SDS011;63298;53.164;8.610;2022-11-30T06:21:38;45.92;;;17.00;;
74777;SDS011;63298;53.164;8.610;2022-11-30T06:24:03;36.92;;;14.85;;
74777;SDS011;63298;53.164;8.610;2022-11-30T06:26:29;39.10;;;14.75;;
74777;SDS011;63298;53.164;8.610;2022-11-30T06:28:54;42.58;;;15.40;;
74777;SDS011;63298;53.164;8.610;2022-11-30T06:31:19;44.53;;;15.40;;
74777;SDS011;63298;53.164;8.610;2022-11-30T06:33:45;45.05;;;15.90;;
74777;SDS011;63298;53.164;8.610;2022-11-30T06:36:10;40.67;;;14.55;;
74777;SDS011;63298;53.164;8.610;2022-11-30T06:38:36;32.17;;;13.80;;
74777;SDS011;63298;53.164;8.610;2022-11-30T06:41:02;39.53;;;14.43;;
74777;SDS011;63298;53.164;8.610;2022-11-30T06:43:32;40.67;;;15.27;;
74777;SDS011;63298;53.164;8.610;2022-11-30T06:45:59;41.25;;;15.20;;
74777;SDS011;63298;53.164;8.610;2022-11-30T06:48:25;35.80;;;12.93;;
74777;SDS011;63298;53.164;8.610;2022-11-30T06:50:50;41.58;;;14.55;;
74777;SDS011;63298;53.164;8.610;2022-11-30T06:53:16;38.67;;;14.68;;
74777;SDS011;63298;53.164;8.610;2022-11-30T06:55:41;47.10;;;16.17;;
74777;SDS011;63298;53.164;8.610;2022-11-30T06:58:07;44.65;;;15.82;;
74777;SDS011;63298;53.164;8.610;2022-11-30T07:00:33;46.55;;;15.60;;
74777;SDS011;63298;53.164;8.610;2022-11-30T07:02:59;43.15;;;15.35;;
74777;SDS011;63298;53.164;8.610;2022-11-30T07:05:24;58.03;;;18.83;;
74777;SDS011;63298;53.164;8.610;2022-11-30T07:07:49;55.78;;;18.33;;
74777;SDS011;63298;53.164;8.610;2022-11-30T07:10:17;53.97;;;16.00;;
74777;SDS011;63298;53.164;8.610;2022-11-30T07:12:43;58.70;;;18.50;;
74777;SDS011;63298;53.164;8.610;2022-11-30T07:15:08;64.07;;;18.63;;
74777;SDS011;63298;53.164;8.610;2022-11-30T07:17:34;58.38;;;18.27;;
74777;SDS011;63298;53.164;8.610;2022-11-30T07:19:59;62.13;;;19.37;;
74777;SDS011;63298;53.164;8.610;2022-11-30T07:22:25;60.60;;;19.65;;
74777;SDS011;63298;53.164;8.610;2022-11-30T07:24:50;72.47;;;22.17;;
74777;SDS011;63298;53.164;8.610;2022-11-30T07:27:15;68.47;;;21.08;;
74777;SDS011;63298;53.164;8.610;2022-11-30T07:29:40;65.63;;;20.90;;
74777;SDS011;63298;53.164;8.610;2022-11-30T07:32:06;66.33;;;19.17;;
74777;SDS011;63298;53.164;8.610;2022-11-30T07:34:31;69.18;;;20.05;;
74777;SDS011;63298;53.164;8.610;2022-11-30T07:36:56;68.87;;;19.63;;
74777;SDS011;63298;53.164;8.610;2022-11-30T07:39:22;74.32;;;21.80;;
74777;SDS011;63298;53.164;8.610;2022-11-30T07:41:47;72.13;;;21.33;;
74777;SDS011;63298;53.164;8.610;2022-11-30T07:44:12;76.25;;;23.42;;
74777;SDS011;63298;53.164;8.610;2022-11-30T07:46:38;75.45;;;22.02;;
74777;SDS011;63298;53.164;8.610;2022-11-30T07:49:03;74.97;;;22.20;;
74777;SDS011;63298;53.164;8.610;2022-11-30T07:51:30;93.82;;;24.38;;
74777;SDS011;63298;53.164;8.610;2022-11-30T07:53:56;84.82;;;23.38;;
74777;SDS011;63298;53.164;8.610;2022-11-30T07:56:22;72.90;;;22.13;;
74777;SDS011;63298;53.164;8.610;2022-11-30T07:58:48;68.80;;;20.88;;
74777;SDS011;63298;53.164;8.610;2022-11-30T08:01:16;78.03;;;22.27;;
74777;SDS011;63298;53.164;8.610;2022-11-30T08:03:43;74.18;;;21.98;;
74777;SDS011;63298;53.164;8.610;2022-11-30T08:06:09;80.55;;;23.38;;
74777;SDS011;63298;53.164;8.610;2022-11-30T08:08:37;71.68;;;22.88;;
74777;SDS011;63298;53.164;8.610;2022-11-30T08:11:04;75.25;;;21.48;;
74777;SDS011;63298;53.164;8.610;2022-11-30T08:13:31;77.00;;;21.95;;
74777;SDS011;63298;53.164;8.610;2022-11-30T08:16:03;73.63;;;22.80;;
74777;SDS011;63298;53.164;8.610;2022-11-30T08:18:31;74.47;;;22.45;;
74777;SDS011;63298;53.164;8.610;2022-11-30T08:20:57;70.18;;;22.90;;
74777;SDS011;63298;53.164;8.610;2022-11-30T08:23:24;75.85;;;24.60;;
74777;SDS011;63298;53.164;8.610;2022-11-30T08:25:52;80.30;;;23.23;;
74777;SDS011;63298;53.164;8.610;2022-11-30T08:28:17;74.80;;;23.23;;
74777;SDS011;63298;53.164;8.610;2022-11-30T08:30:43;73.32;;;22.45;;
74777;SDS011;63298;53.164;8.610;2022-11-30T08:33:08;73.93;;;24.20;;
74777;SDS011;63298;53.164;8.610;2022-11-30T08:35:33;73.63;;;23.33;;
74777;SDS011;63298;53.164;8.610;2022-11-30T08:37:59;72.00;;;23.20;;
74777;SDS011;63298;53.164;8.610;2022-11-30T08:40:24;71.33;;;23.47;;
74777;SDS011;63298;53.164;8.610;2022-11-30T08:42:49;74.35;;;24.75;;
74777;SDS011;63298;53.164;8.610;2022-11-30T08:45:15;75.18;;;22.38;;
74777;SDS011;63298;53.164;8.610;2022-11-30T08:47:40;78.03;;;23.35;;
74777;SDS011;63298;53.164;8.610;2022-11-30T08:50:05;69.50;;;23.05;;
74777;SDS011;63298;53.164;8.610;2022-11-30T08:52:31;77.50;;;22.00;;
74777;SDS011;63298;53.164;8.610;2022-11-30T08:54:56;74.45;;;23.38;;
74777;SDS011;63298;53.164;8.610;2022-11-30T08:57:22;69.00;;;20.80;;
74777;SDS011;63298;53.164;8.610;2022-11-30T08:59:47;77.22;;;23.95;;
74777;SDS011;63298;53.164;8.610;2022-11-30T09:02:14;66.38;;;21.60;;
74777;SDS011;63298;53.164;8.610;2022-11-30T09:04:40;68.13;;;21.92;;
74777;SDS011;63298;53.164;8.610;2022-11-30T09:07:05;74.88;;;22.02;;
74777;SDS011;63298;53.164;8.610;2022-11-30T09:09:31;69.85;;;22.90;;
74777;SDS011;63298;53.164;8.610;2022-11-30T09:11:56;72.80;;;23.02;;
74777;SDS011;63298;53.164;8.610;2022-11-30T09:14:22;66.93;;;22.58;;
74777;SDS011;63298;53.164;8.610;2022-11-30T09:16:47;61.25;;;21.58;;
74777;SDS011;63298;53.164;8.610;2022-11-30T09:19:12;64.57;;;21.43;;
74777;SDS011;63298;53.164;8.610;2022-11-30T09:21:38;63.05;;;22.95;;
74777;SDS011;63298;53.164;8.610;2022-11-30T09:24:04;68.07;;;22.92;;
74777;SDS011;63298;53.164;8.610;2022-11-30T09:26:30;62.55;;;21.20;;
74777;SDS011;63298;53.164;8.610;2022-11-30T09:28:55;69.13;;;21.92;;
74777;SDS011;63298;53.164;8.610;2022-11-30T09:31:21;67.88;;;21.52;;
74777;SDS011;63298;53.164;8.610;2022-11-30T09:33:48;69.75;;;22.98;;
74777;SDS011;63298;53.164;8.610;2022-11-30T09:36:18;62.58;;;22.20;;
74777;SDS011;63298;53.164;8.610;2022-11-30T09:38:44;65.95;;;21.60;;
74777;SDS011;63298;53.164;8.610;2022-11-30T09:43:58;63.00;;;22.25;;
74777;SDS011;63298;53.164;8.610;2022-11-30T09:46:38;67.18;;;22.38;;
74777;SDS011;63298;53.164;8.610;2022-11-30T09:51:43;64.45;;;21.70;;
74777;SDS011;63298;53.164;8.610;2022-11-30T09:54:44;67.70;;;21.25;;
74777;SDS011;63298;53.164;8.610;2022-11-30T09:57:26;69.75;;;20.77;;
74777;SDS011;63298;53.164;8.610;2022-11-30T10:00:10;79.00;;;23.67;;
74777;SDS011;63298;53.164;8.610;2022-11-30T10:02:38;61.45;;;20.17;;
74777;SDS011;63298;53.164;8.610;2022-11-30T10:05:14;69.75;;;22.38;;
74777;SDS011;63298;53.164;8.610;2022-11-30T10:08:25;67.72;;;21.95;;
74777;SDS011;63298;53.164;8.610;2022-11-30T10:25:27;74.38;;;23.08;;
74777;SDS011;63298;53.164;8.610;2022-11-30T10:30:04;77.38;;;23.95;;
74777;SDS011;63298;53.164;8.610;2022-11-30T10:32:37;64.53;;;21.70;;
74777;SDS011;63298;53.164;8.610;2022-11-30T10:35:16;78.95;;;23.33;;
74777;SDS011;63298;53.164;8.610;2022-11-30T10:37:47;72.75;;;22.20;;
74777;SDS011;63298;53.164;8.610;2022-11-30T10:40:17;77.20;;;22.58;;
74777;SDS011;63298;53.164;8.610;2022-11-30T10:45:32;68.95;;;21.58;;
74777;SDS011;63298;53.164;8.610;2022-11-30T10:50:34;79.18;;;23.08;;
74777;SDS011;63298;53.164;8.610;2022-11-30T10:52:59;71.00;;;22.02;;
74777;SDS011;63298;53.164;8.610;2022-11-30T10:55:27;70.68;;;21.08;;
74777;SDS011;63298;53.164;8.610;2022-11-30T10:57:58;74.40;;;23.40;;
74777;SDS011;63298;53.164;8.610;2022-11-30T11:00:31;69.97;;;22.95;;
74777;SDS011;63298;53.164;8.610;2022-11-30T11:02:57;68.10;;;23.03;;
74777;SDS011;63298;53.164;8.610;2022-11-30T11:05:26;76.07;;;21.80;;
74777;SDS011;63298;53.164;8.610;2022-11-30T11:07:54;71.38;;;21.83;;
74777;SDS011;63298;53.164;8.610;2022-11-30T11:10:44;66.88;;;19.92;;
74777;SDS011;63298;53.164;8.610;2022-11-30T11:13:18;68.70;;;22.98;;
74777;SDS011;63298;53.164;8.610;2022-11-30T11:15:59;69.45;;;23.08;;
74777;SDS011;63298;53.164;8.610;2022-11-30T11:18:26;64.53;;;20.67;;
74777;SDS011;63298;53.164;8.610;2022-11-30T11:23:34;75.53;;;23.15;;
74777;SDS011;63298;53.164;8.610;2022-11-30T11:26:01;78.57;;;23.60;;
74777;SDS011;63298;53.164;8.610;2022-11-30T11:28:28;84.68;;;23.98;;
74777;SDS011;63298;53.164;8.610;2022-11-30T11:30:54;74.72;;;23.70;;
74777;SDS011;63298;53.164;8.610;2022-11-30T11:33:27;83.15;;;23.45;;
74777;SDS011;63298;53.164;8.610;2022-11-30T11:49:34;77.88;;;23.73;;
74777;SDS011;63298;53.164;8.610;2022-11-30T11:57:03;81.72;;;23.08;;
74777;SDS011;63298;53.164;8.610;2022-11-30T11:59:53;87.68;;;24.98;;
74777;SDS011;63298;53.164;8.610;2022-11-30T12:02:31;71.97;;;22.70;;
74777;SDS011;63298;53.164;8.610;2022-11-30T12:10:35;75.57;;;22.27;;
74777;SDS011;63298;53.164;8.610;2022-11-30T12:13:15;77.85;;;22.08;;
74777;SDS011;63298;53.164;8.610;2022-11-30T12:19:14;76.97;;;21.40;;
74777;SDS011;63298;53.164;8.610;2022-11-30T12:30:31;71.93;;;22.50;;
74777;SDS011;63298;53.164;8.610;2022-11-30T12:36:27;75.18;;;23.38;;
74777;SDS011;63298;53.164;8.610;2022-11-30T12:39:02;84.55;;;26.52;;
74777;SDS011;63298;53.164;8.610;2022-11-30T12:53:19;65.22;;;21.15;;
74777;SDS011;63298;53.164;8.610;2022-11-30T12:55:58;59.58;;;19.20;;
74777;SDS011;63298;53.164;8.610;2022-11-30T13:03:47;58.58;;;19.80;;
74777;SDS011;63298;53.164;8.610;2022-11-30T13:06:23;65.60;;;21.35;;
74777;SDS011;63298;53.164;8.610;2022-11-30T13:09:24;65.00;;;20.45;;
74777;SDS011;63298;53.164;8.610;2022-11-30T13:11:58;60.80;;;17.80;;
74777;SDS011;63298;53.164;8.610;2022-11-30T13:14:29;58.25;;;18.77;;
74777;SDS011;63298;53.164;8.610;2022-11-30T13:17:01;59.80;;;20.38;;
74777;SDS011;63298;53.164;8.610;2022-11-30T13:19:51;61.53;;;19.27;;
74777;SDS011;63298;53.164;8.610;2022-11-30T13:35:57;56.67;;;18.15;;
74777;SDS011;63298;53.164;8.610;2022-11-30T13:38:23;49.45;;;18.23;;
74777;SDS011;63298;53.164;8.610;2022-11-30T13:41:02;47.70;;;18.05;;
74777;SDS011;63298;53.164;8.610;2022-11-30T13:43:29;48.05;;;16.70;;
74777;SDS011;63298;53.164;8.610;2022-11-30T13:48:40;51.25;;;18.00;;
74777;SDS011;63298;53.164;8.610;2022-11-30T13:51:07;52.53;;;18.48;;
74777;SDS011;63298;53.164;8.610;2022-11-30T13:53:36;49.00;;;17.60;;
74777;SDS011;63298;53.164;8.610;2022-11-30T13:56:03;43.10;;;16.77;;
74777;SDS011;63298;53.164;8.610;2022-11-30T13:59:45;49.15;;;16.38;;
74777;SDS011;63298;53.164;8.610;2022-11-30T14:01:48;47.72;;;16.40;;
74777;SDS011;63298;53.164;8.610;2022-11-30T14:06:44;43.80;;;16.27;;
74777;SDS011;63298;53.164;8.610;2022-11-30T14:09:15;62.53;;;20.50;;
74777;SDS011;63298;53.164;8.610;2022-11-30T14:17:57;80.60;;;26.85;;
74777;SDS011;63298;53.164;8.610;2022-11-30T14:20:23;75.95;;;23.42;;
74777;SDS011;63298;53.164;8.610;2022-11-30T14:22:56;71.03;;;22.75;;
74777;SDS011;63298;53.164;8.610;2022-11-30T14:25:26;63.70;;;22.55;;
74777;SDS011;63298;53.164;8.610;2022-11-30T14:27:52;67.18;;;24.25;;
74777;SDS011;63298;53.164;8.610;2022-11-30T14:30:22;66.82;;;21.58;;
74777;SDS011;63298;53.164;8.610;2022-11-30T14:32:54;66.43;;;23.60;;
74777;SDS011;63298;53.164;8.610;2022-11-30T14:35:29;62.10;;;21.70;;
74777;SDS011;63298;53.164;8.610;2022-11-30T14:37:56;57.42;;;22.90;;
74777;SDS011;63298;53.164;8.610;2022-11-30T14:40:23;64.80;;;21.92;;
74777;SDS011;63298;53.164;8.610;2022-11-30T14:42:55;61.90;;;20.50;;
74777;SDS011;63298;53.164;8.610;2022-11-30T14:45:25;49.38;;;19.30;;
74777;SDS011;63298;53.164;8.610;2022-11-30T14:47:57;54.20;;;20.48;;
74777;SDS011;63298;53.164;8.610;2022-11-30T14:50:46;48.83;;;20.35;;
74777;SDS011;63298;53.164;8.610;2022-11-30T15:01:18;43.85;;;20.13;;
74777;SDS011;63298;53.164;8.610;2022-11-30T15:03:46;66.75;;;26.77;;
74777;SDS011;63298;53.164;8.610;2022-11-30T15:06:13;48.63;;;19.83;;
74777;SDS011;63298;53.164;8.610;2022-11-30T15:08:42;53.00;;;21.50;;
74777;SDS011;63298;53.164;8.610;2022-11-30T15:11:18;49.40;;;19.80;;
74777;SDS011;63298;53.164;8.610;2022-11-30T15:16:30;70.28;;;26.65;;
74777;SDS011;63298;53.164;8.610;2022-11-30T15:19:16;59.45;;;22.88;;
74777;SDS011;63298;53.164;8.610;2022-11-30T15:21:51;57.30;;;21.77;;
74777;SDS011;63298;53.164;8.610;2022-11-30T15:24:18;56.92;;;22.63;;
74777;SDS011;63298;53.164;8.610;2022-11-30T15:31:57;51.22;;;20.58;;
74777;SDS011;63298;53.164;8.610;2022-11-30T15:37:26;53.22;;;20.17;;
74777;SDS011;63298;53.164;8.610;2022-11-30T15:39:54;62.88;;;22.40;;
74777;SDS011;63298;53.164;8.610;2022-11-30T15:42:27;51.33;;;19.98;;
74777;SDS011;63298;53.164;8.610;2022-11-30T15:45:06;53.38;;;20.88;;
74777;SDS011;63298;53.164;8.610;2022-11-30T15:47:39;51.47;;;19.60;;
74777;SDS011;63298;53.164;8.610;2022-11-30T15:52:53;52.35;;;19.77;;
74777;SDS011;63298;53.164;8.610;2022-11-30T15:58:28;52.03;;;20.33;;
74777;SDS011;63298;53.164;8.610;2022-11-30T16:01:12;50.90;;;20.58;;
74777;SDS011;63298;53.164;8.610;2022-11-30T16:06:43;58.22;;;21.63;;
74777;SDS011;63298;53.164;8.610;2022-11-30T16:09:19;59.90;;;21.50;;
74777;SDS011;63298;53.164;8.610;2022-11-30T16:11:54;55.60;;;19.73;;
74777;SDS011;63298;53.164;8.610;2022-11-30T16:14:21;57.47;;;21.05;;
74777;SDS011;63298;53.164;8.610;2022-11-30T16:16:47;63.25;;;20.83;;
74777;SDS011;63298;53.164;8.610;2022-11-30T16:19:13;57.08;;;20.02;;
74777;SDS011;63298;53.164;8.610;2022-11-30T16:21:38;56.08;;;20.35;;
74777;SDS011;63298;53.164;8.610;2022-11-30T16:24:04;52.15;;;19.17;;
74777;SDS011;63298;53.164;8.610;2022-11-30T16:26:30;55.75;;;19.33;;
74777;SDS011;63298;53.164;8.610;2022-11-30T16:28:55;58.10;;;19.98;;
74777;SDS011;63298;53.164;8.610;2022-11-30T16:31:20;60.17;;;21.13;;
74777;SDS011;63298;53.164;8.610;2022-11-30T16:33:47;58.15;;;20.88;;
74777;SDS011;63298;53.164;8.610;2022-11-30T16:36:14;57.53;;;21.38;;
74777;SDS011;63298;53.164;8.610;2022-11-30T16:38:48;57.35;;;21.65;;
74777;SDS011;63298;53.164;8.610;2022-11-30T16:41:16;58.55;;;21.45;;
74777;SDS011;63298;53.164;8.610;2022-11-30T16:43:43;57.53;;;22.95;;
74777;SDS011;63298;53.164;8.610;2022-11-30T16:46:16;60.40;;;21.80;;
74777;SDS011;63298;53.164;8.610;2022-11-30T16:48:43;57.25;;;22.90;;
74777;SDS011;63298;53.164;8.610;2022-11-30T16:51:11;57.83;;;21.75;;
74777;SDS011;63298;53.164;8.610;2022-11-30T16:53:40;59.20;;;21.60;;
74777;SDS011;63298;53.164;8.610;2022-11-30T16:56:08;68.67;;;22.40;;
74777;SDS011;63298;53.164;8.610;2022-11-30T16:58:34;57.58;;;20.45;;
74777;SDS011;63298;53.164;8.610;2022-11-30T17:00:59;58.08;;;21.77;;
74777;SDS011;63298;53.164;8.610;2022-11-30T17:03:26;61.92;;;21.27;;
74777;SDS011;63298;53.164;8.610;2022-11-30T17:05:53;57.63;;;21.23;;
74777;SDS011;63298;53.164;8.610;2022-11-30T17:08:19;60.15;;;21.30;;
74777;SDS011;63298;53.164;8.610;2022-11-30T17:10:44;53.88;;;20.20;;
74777;SDS011;63298;53.164;8.610;2022-11-30T17:13:13;54.15;;;20.48;;
74777;SDS011;63298;53.164;8.610;2022-11-30T17:15:39;56.00;;;20.38;;